Time;durP1;ratioP1;P1;durP2;ratioP2;P2;SDS_P1;SDS_P2;PMS_P1;PMS_P2;Temp;Humidity;BMP_temperature;BMP_pressure;BME280_temperature;BME280_humidity;BME280_pressure;Samples;Min_cycle;Max_cycle;Signal;HPM_P1;HPM_P2
2022/04/21 00:00:14;;;;;;;13.27;6.50;;;;;;;;;;4952285;28;20499;-81
2022/04/21 00:02:41;;;;;;;12.60;6.60;;;;;;;;;;4970053;28;20593;-81
2022/04/21 00:05:11;;;;;;;11.98;6.93;;;;;;;;;;4951325;28;20062;-81
2022/04/21 00:07:37;;;;;;;10.82;6.60;;;;;;;;;;4953231;28;20114;-81
2022/04/21 00:10:04;;;;;;;12.82;6.55;;;;;;;;;;4962581;28;20098;-81
2022/04/21 00:12:31;;;;;;;10.45;6.40;;;;;;;;;;4951563;28;20048;-81
2022/04/21 00:14:57;;;;;;;11.25;6.72;;;;;;;;;;4952498;28;20107;-81
2022/04/21 00:17:27;;;;;;;11.50;6.38;;;;;;;;;;4953460;28;20066;-81
2022/04/21 00:19:53;;;;;;;10.90;6.45;;;;;;;;;;4944888;28;20930;-81
2022/04/21 00:25:06;;;;;;;11.63;6.60;;;;;;;;;;4963449;28;20056;-81
2022/04/21 00:27:36;;;;;;;12.07;6.90;;;;;;;;;;4952932;28;20406;-81
2022/04/21 00:30:02;;;;;;;11.57;6.80;;;;;;;;;;4948665;28;20067;-81
2022/04/21 00:32:29;;;;;;;12.32;7.10;;;;;;;;;;4967346;28;20111;-81
2022/04/21 00:34:55;;;;;;;10.55;6.70;;;;;;;;;;4953036;28;20062;-81
2022/04/21 00:37:21;;;;;;;11.13;6.43;;;;;;;;;;4963751;28;20082;-81
2022/04/21 00:39:50;;;;;;;11.13;6.28;;;;;;;;;;4969927;28;20611;-81
2022/04/21 00:42:16;;;;;;;12.85;6.60;;;;;;;;;;4952928;28;20059;-81
2022/04/21 00:44:43;;;;;;;10.07;6.47;;;;;;;;;;4951337;28;20047;-81
2022/04/21 00:47:09;;;;;;;14.82;6.93;;;;;;;;;;4952790;28;20059;-81
2022/04/21 00:49:36;;;;;;;11.93;6.68;;;;;;;;;;4969966;28;20586;-81
2022/04/21 00:52:03;;;;;;;11.65;6.68;;;;;;;;;;4952364;28;20464;-81
2022/04/21 00:54:30;;;;;;;11.88;6.75;;;;;;;;;;4947119;28;20134;-82
2022/04/21 00:56:57;;;;;;;14.98;7.07;;;;;;;;;;4966028;28;20143;-81
2022/04/21 00:59:25;;;;;;;12.20;6.93;;;;;;;;;;4951350;28;20956;-81
2022/04/21 01:04:38;;;;;;;9.95;6.22;;;;;;;;;;4961157;28;20112;-81
2022/04/21 01:07:08;;;;;;;11.75;6.50;;;;;;;;;;4950134;28;20055;-81
2022/04/21 01:09:35;;;;;;;11.68;6.95;;;;;;;;;;4952013;28;20055;-81
2022/04/21 01:12:03;;;;;;;12.45;6.75;;;;;;;;;;4951909;28;20103;-81
2022/04/21 01:14:30;;;;;;;11.65;6.88;;;;;;;;;;4969257;28;20063;-81
2022/04/21 01:16:59;;;;;;;12.27;6.68;;;;;;;;;;4950895;28;20082;-81
2022/04/21 01:19:25;;;;;;;11.07;6.93;;;;;;;;;;4957677;28;20087;-81
2022/04/21 01:21:51;;;;;;;12.77;6.60;;;;;;;;;;4951453;28;20055;-81
2022/04/21 01:24:18;;;;;;;11.35;6.50;;;;;;;;;;4971862;28;20058;-81
2022/04/21 01:26:46;;;;;;;10.85;6.65;;;;;;;;;;4953487;28;20059;-81
2022/04/21 01:29:13;;;;;;;13.63;7.40;;;;;;;;;;4950361;28;20138;-81
2022/04/21 01:31:39;;;;;;;16.67;7.00;;;;;;;;;;4970716;28;20089;-81
2022/04/21 01:34:05;;;;;;;11.63;7.05;;;;;;;;;;4954095;28;20062;-81
2022/04/21 01:36:32;;;;;;;12.43;6.68;;;;;;;;;;4952975;28;20073;-81
2022/04/21 01:41:43;;;;;;;11.80;7.10;;;;;;;;;;4971672;28;20052;-81
2022/04/21 01:44:10;;;;;;;11.65;6.70;;;;;;;;;;4971241;28;20055;-81
2022/04/21 01:46:36;;;;;;;12.93;7.05;;;;;;;;;;4953927;28;20055;-81
2022/04/21 01:49:03;;;;;;;11.23;6.68;;;;;;;;;;4972891;28;20055;-81
2022/04/21 01:51:29;;;;;;;16.05;7.53;;;;;;;;;;4953295;28;20040;-81
2022/04/21 01:53:56;;;;;;;11.55;7.13;;;;;;;;;;4955186;28;20086;-81
2022/04/21 01:56:23;;;;;;;14.13;7.30;;;;;;;;;;4947215;28;20693;-81
2022/04/21 01:58:50;;;;;;;13.70;7.38;;;;;;;;;;4954720;28;20523;-81
2022/04/21 02:01:16;;;;;;;11.68;7.07;;;;;;;;;;4952172;28;20519;-81
2022/04/21 02:03:43;;;;;;;13.10;6.65;;;;;;;;;;4965814;28;20079;-81
2022/04/21 02:06:09;;;;;;;11.95;6.80;;;;;;;;;;4952265;28;20146;-81
2022/04/21 02:08:36;;;;;;;12.10;6.72;;;;;;;;;;4948080;28;20112;-81
2022/04/21 02:11:02;;;;;;;11.68;7.00;;;;;;;;;;4971314;28;20913;-81
2022/04/21 02:13:29;;;;;;;12.07;7.38;;;;;;;;;;4967913;28;20056;-82
2022/04/21 02:15:55;;;;;;;12.35;6.72;;;;;;;;;;4966119;28;20059;-83
2022/04/21 02:18:22;;;;;;;12.52;7.18;;;;;;;;;;4972454;28;20056;-82
2022/04/21 02:20:48;;;;;;;13.20;7.00;;;;;;;;;;4971817;28;20090;-82
2022/04/21 02:23:14;;;;;;;13.32;7.00;;;;;;;;;;4970427;28;20083;-82
2022/04/21 02:25:41;;;;;;;12.35;6.93;;;;;;;;;;4954517;28;20513;-80
2022/04/21 02:28:08;;;;;;;12.27;6.70;;;;;;;;;;4950571;28;20062;-81
2022/04/21 02:30:35;;;;;;;13.50;7.20;;;;;;;;;;4963524;28;20139;-82
2022/04/21 02:33:01;;;;;;;12.52;7.40;;;;;;;;;;4964983;28;20091;-81
2022/04/21 02:35:28;;;;;;;15.15;7.10;;;;;;;;;;4960626;28;20055;-82
2022/04/21 02:37:54;;;;;;;13.30;7.38;;;;;;;;;;4952411;28;22057;-82
2022/04/21 02:40:20;;;;;;;13.90;6.68;;;;;;;;;;4954233;28;20166;-81
2022/04/21 02:42:47;;;;;;;11.10;6.95;;;;;;;;;;4961368;28;20861;-82
2022/04/21 02:45:14;;;;;;;10.65;6.90;;;;;;;;;;4952405;28;20059;-81
2022/04/21 02:47:43;;;;;;;13.40;7.57;;;;;;;;;;4953811;28;20575;-82
2022/04/21 02:50:11;;;;;;;13.68;7.70;;;;;;;;;;4953209;28;20139;-81
2022/04/21 02:52:38;;;;;;;12.75;7.07;;;;;;;;;;4971390;28;20163;-83
2022/04/21 02:57:50;;;;;;;13.57;7.47;;;;;;;;;;4971464;28;20065;-82
2022/04/21 03:00:17;;;;;;;11.73;7.13;;;;;;;;;;4941907;28;20151;-80
2022/04/21 03:02:43;;;;;;;11.93;6.70;;;;;;;;;;4966877;28;20075;-82
2022/04/21 03:05:11;;;;;;;14.60;7.35;;;;;;;;;;4954282;28;20593;-82
2022/04/21 03:07:38;;;;;;;14.40;7.63;;;;;;;;;;4953035;28;20106;-81
2022/04/21 03:10:05;;;;;;;13.38;7.43;;;;;;;;;;4945189;28;20063;-81
2022/04/21 03:12:32;;;;;;;16.17;7.78;;;;;;;;;;4971092;28;20079;-80
2022/04/21 03:14:58;;;;;;;14.68;7.57;;;;;;;;;;4952364;28;20056;-82
2022/04/21 03:17:24;;;;;;;19.40;7.85;;;;;;;;;;4952916;28;20691;-82
2022/04/21 03:19:51;;;;;;;14.10;7.15;;;;;;;;;;4968287;28;20094;-82
2022/04/21 03:25:03;;;;;;;12.18;7.45;;;;;;;;;;4961735;28;20564;-81
2022/04/21 03:27:30;;;;;;;11.45;7.22;;;;;;;;;;4953455;28;20146;-81
2022/04/21 03:29:56;;;;;;;11.38;7.05;;;;;;;;;;4951722;28;20055;-81
2022/04/21 03:32:23;;;;;;;12.48;7.55;;;;;;;;;;4966895;28;20526;-82
2022/04/21 03:34:49;;;;;;;13.60;8.35;;;;;;;;;;4950110;28;20066;-84
2022/04/21 03:37:16;;;;;;;13.05;7.43;;;;;;;;;;4964717;28;20086;-84
2022/04/21 03:39:43;;;;;;;12.80;7.80;;;;;;;;;;4946719;28;20094;-84
2022/04/21 03:42:28;;;;;;;12.48;7.38;;;;;;;;;;4951278;28;20055;-82
2022/04/21 03:44:55;;;;;;;11.88;7.03;;;;;;;;;;4947150;28;20051;-81
2022/04/21 03:47:22;;;;;;;14.20;6.88;;;;;;;;;;4960991;28;20134;-82
2022/04/21 03:49:48;;;;;;;13.00;7.50;;;;;;;;;;4952037;28;20094;-82
2022/04/21 03:52:17;;;;;;;13.98;6.95;;;;;;;;;;4961835;28;20059;-82
2022/04/21 03:54:43;;;;;;;12.68;7.20;;;;;;;;;;4952267;28;20107;-81
2022/04/21 03:57:10;;;;;;;12.35;7.32;;;;;;;;;;4948871;28;20051;-81
2022/04/21 03:59:37;;;;;;;11.27;6.72;;;;;;;;;;4955444;28;20068;-83
2022/04/21 04:02:04;;;;;;;15.35;7.32;;;;;;;;;;4952452;28;20122;-83
2022/04/21 04:04:31;;;;;;;12.93;7.20;;;;;;;;;;4951785;28;20074;-82
2022/04/21 04:12:32;;;;;;;13.18;7.22;;;;;;;;;;4969613;28;20134;-82
2022/04/21 04:14:59;;;;;;;12.15;6.88;;;;;;;;;;4969743;28;20607;-83
2022/04/21 04:17:30;;;;;;;12.70;6.57;;;;;;;;;;4950626;28;20828;-82
2022/04/21 04:19:57;;;;;;;11.68;6.75;;;;;;;;;;4943898;28;20146;-82
2022/04/21 04:22:23;;;;;;;15.00;6.95;;;;;;;;;;4962798;28;20921;-84
2022/04/21 04:24:56;;;;;;;10.88;6.35;;;;;;;;;;4952497;28;20103;-82
2022/04/21 04:27:24;;;;;;;12.68;6.57;;;;;;;;;;4964103;28;20062;-83
2022/04/21 04:29:50;;;;;;;12.20;6.80;;;;;;;;;;4952494;28;20166;-84
2022/04/21 04:32:17;;;;;;;12.70;7.30;;;;;;;;;;4963385;28;20090;-82
2022/04/21 04:34:43;;;;;;;13.38;7.20;;;;;;;;;;4952900;28;20142;-83
2022/04/21 04:37:09;;;;;;;17.33;6.88;;;;;;;;;;4945369;28;20036;-82
2022/04/21 04:39:36;;;;;;;12.35;7.10;;;;;;;;;;4968052;28;20135;-82
2022/04/21 04:42:18;;;;;;;14.27;7.53;;;;;;;;;;4950691;28;20059;-81
2022/04/21 04:44:44;;;;;;;13.60;7.38;;;;;;;;;;4962974;28;20134;-81
2022/04/21 04:47:11;;;;;;;12.10;7.25;;;;;;;;;;4953200;28;20558;-81
2022/04/21 04:49:37;;;;;;;12.57;7.25;;;;;;;;;;4968497;28;20115;-83
2022/04/21 04:52:04;;;;;;;14.98;8.18;;;;;;;;;;4970117;28;20059;-82
2022/04/21 04:54:30;;;;;;;11.65;6.70;;;;;;;;;;4951381;28;20059;-82
2022/04/21 04:56:57;;;;;;;13.52;6.93;;;;;;;;;;4950016;28;20541;-82
2022/04/21 04:59:30;;;;;;;13.80;7.47;;;;;;;;;;4957531;28;20639;-82
2022/04/21 05:02:05;;;;;;;17.35;8.10;;;;;;;;;;4944887;28;20562;-81
2022/04/21 05:04:31;;;;;;;12.70;7.18;;;;;;;;;;4953185;28;20054;-81
2022/04/21 05:06:58;;;;;;;12.32;6.55;;;;;;;;;;4971145;28;20051;-83
2022/04/21 05:09:25;;;;;;;15.13;7.32;;;;;;;;;;4955565;28;20091;-80
2022/04/21 05:11:52;;;;;;;17.13;7.78;;;;;;;;;;4971670;28;20064;-82
2022/04/21 05:14:20;;;;;;;16.85;8.38;;;;;;;;;;4973248;28;20051;-81
2022/04/21 05:16:46;;;;;;;14.93;7.85;;;;;;;;;;4954521;28;20079;-82
2022/04/21 05:19:14;;;;;;;14.65;7.57;;;;;;;;;;4955374;28;20155;-84
2022/04/21 05:21:40;;;;;;;14.10;7.65;;;;;;;;;;4954207;28;20090;-82
2022/04/21 05:24:07;;;;;;;14.07;7.85;;;;;;;;;;4972944;28;20051;-83
2022/04/21 05:26:34;;;;;;;13.43;7.65;;;;;;;;;;4955069;28;20127;-81
2022/04/21 05:30:55;;;;;;;14.13;8.00;;;;;;;;;;4954589;28;20536;-81
2022/04/21 05:31:55;;;;;;;16.65;7.70;;;;;;;;;;4967839;28;20146;-82
2022/04/21 05:34:22;;;;;;;14.82;8.15;;;;;;;;;;4947644;28;20299;-82
2022/04/21 05:36:49;;;;;;;13.40;7.85;;;;;;;;;;4953490;28;20063;-82
2022/04/21 05:39:15;;;;;;;14.35;7.90;;;;;;;;;;4955138;28;20585;-80
2022/04/21 05:41:44;;;;;;;11.95;7.40;;;;;;;;;;4966321;28;20070;-82
2022/04/21 05:44:11;;;;;;;13.60;8.00;;;;;;;;;;4954002;28;20138;-83
2022/04/21 05:46:38;;;;;;;16.52;7.30;;;;;;;;;;4971461;28;20869;-80
2022/04/21 05:49:04;;;;;;;13.35;7.15;;;;;;;;;;4949999;28;20094;-82
2022/04/21 05:51:31;;;;;;;13.70;7.57;;;;;;;;;;4952813;28;20126;-82
2022/04/21 05:53:58;;;;;;;16.50;7.50;;;;;;;;;;4972033;28;20059;-81
2022/04/21 05:56:25;;;;;;;14.82;7.88;;;;;;;;;;4946783;28;20090;-81
2022/04/21 05:58:51;;;;;;;15.48;8.05;;;;;;;;;;4971935;28;20098;-83
2022/04/21 06:01:18;;;;;;;17.05;7.30;;;;;;;;;;4961451;28;20142;-82
2022/04/21 06:03:45;;;;;;;15.43;7.55;;;;;;;;;;4954930;28;20568;-82
2022/04/21 06:06:11;;;;;;;10.75;6.93;;;;;;;;;;4972065;28;20111;-82
2022/04/21 06:08:38;;;;;;;14.48;7.18;;;;;;;;;;4954131;28;20491;-81
2022/04/21 06:11:05;;;;;;;13.20;6.65;;;;;;;;;;4952074;28;20067;-82
2022/04/21 06:13:31;;;;;;;14.05;7.15;;;;;;;;;;4948785;28;20485;-82
2022/04/21 06:15:58;;;;;;;12.75;6.80;;;;;;;;;;4946391;28;21353;-82
2022/04/21 06:18:25;;;;;;;15.45;7.20;;;;;;;;;;4955089;28;20055;-81
2022/04/21 06:20:52;;;;;;;15.30;6.70;;;;;;;;;;4955022;28;20082;-83
2022/04/21 06:23:19;;;;;;;12.18;6.90;;;;;;;;;;4953022;28;20456;-83
2022/04/21 06:25:46;;;;;;;16.15;7.07;;;;;;;;;;4954319;28;20910;-82
2022/04/21 06:28:13;;;;;;;12.38;6.38;;;;;;;;;;4971904;28;20111;-83
2022/04/21 06:30:40;;;;;;;16.70;6.63;;;;;;;;;;4953930;28;20065;-81
2022/04/21 06:33:06;;;;;;;15.30;7.10;;;;;;;;;;4961842;28;20534;-83
2022/04/21 06:35:33;;;;;;;15.25;6.53;;;;;;;;;;4967532;28;20123;-83
2022/04/21 06:37:59;;;;;;;10.82;6.35;;;;;;;;;;4954152;28;20155;-82
2022/04/21 06:40:25;;;;;;;14.13;6.78;;;;;;;;;;4952978;28;20090;-81
2022/04/21 06:42:52;;;;;;;11.57;5.65;;;;;;;;;;4953196;28;20149;-81
2022/04/21 06:48:04;;;;;;;11.80;6.28;;;;;;;;;;4971817;28;20545;-82
2022/04/21 06:50:34;;;;;;;11.88;5.85;;;;;;;;;;4971049;28;20909;-83
2022/04/21 06:53:02;;;;;;;11.63;5.55;;;;;;;;;;4964800;28;20086;-82
2022/04/21 06:55:31;;;;;;;12.63;6.00;;;;;;;;;;4954565;28;20582;-81
2022/04/21 06:57:58;;;;;;;13.13;6.15;;;;;;;;;;4953550;28;20522;-82
2022/04/21 07:00:28;;;;;;;10.15;5.40;;;;;;;;;;4952401;28;20082;-81
2022/04/21 07:02:57;;;;;;;10.90;5.57;;;;;;;;;;4953813;28;20058;-81
2022/04/21 07:05:24;;;;;;;8.65;5.72;;;;;;;;;;4951077;28;20102;-82
2022/04/21 07:07:51;;;;;;;10.38;5.05;;;;;;;;;;4970606;28;20079;-82
2022/04/21 07:10:18;;;;;;;14.40;5.53;;;;;;;;;;4944833;28;20162;-83
2022/04/21 07:12:46;;;;;;;12.68;4.75;;;;;;;;;;4968261;28;20106;-82
2022/04/21 07:15:13;;;;;;;10.93;4.85;;;;;;;;;;4964165;28;20718;-81
2022/04/21 07:17:40;;;;;;;10.00;5.00;;;;;;;;;;4952538;28;20040;-83
2022/04/21 07:20:07;;;;;;;10.50;5.38;;;;;;;;;;4955859;28;20508;-82
2022/04/21 07:22:34;;;;;;;8.23;4.93;;;;;;;;;;4960547;28;20056;-83
2022/04/21 07:25:01;;;;;;;8.27;4.70;;;;;;;;;;4967444;28;20150;-82
2022/04/21 07:27:28;;;;;;;11.38;4.80;;;;;;;;;;4950580;28;20105;-82
2022/04/21 07:29:55;;;;;;;9.70;4.75;;;;;;;;;;4945918;28;20056;-82
2022/04/21 07:32:21;;;;;;;13.70;4.97;;;;;;;;;;4945025;28;20060;-82
2022/04/21 07:34:48;;;;;;;8.25;4.72;;;;;;;;;;4968940;28;20093;-83
2022/04/21 07:37:15;;;;;;;11.57;5.32;;;;;;;;;;4946678;28;20059;-83
2022/04/21 07:39:42;;;;;;;9.23;5.22;;;;;;;;;;4973277;28;20147;-83
2022/04/21 07:42:10;;;;;;;7.90;5.05;;;;;;;;;;4954289;28;20549;-83
2022/04/21 07:44:37;;;;;;;10.85;4.82;;;;;;;;;;4970061;28;20059;-83
2022/04/21 07:47:04;;;;;;;9.05;4.75;;;;;;;;;;4952069;28;20510;-83
2022/04/21 07:49:46;;;;;;;8.32;4.75;;;;;;;;;;4953337;28;20131;-83
2022/04/21 07:55:06;;;;;;;10.25;4.95;;;;;;;;;;4968109;28;20054;-82
2022/04/21 07:57:33;;;;;;;11.80;4.78;;;;;;;;;;4954595;28;20079;-82
2022/04/21 07:59:59;;;;;;;10.32;5.10;;;;;;;;;;4958189;28;20059;-81
2022/04/21 08:02:25;;;;;;;11.15;4.32;;;;;;;;;;4955415;28;20114;-81
2022/04/21 08:04:52;;;;;;;10.30;4.50;;;;;;;;;;4950863;28;20082;-82
2022/04/21 08:07:30;;;;;;;9.75;4.35;;;;;;;;;;4955548;28;20066;-83
2022/04/21 08:10:18;;;;;;;10.77;4.47;;;;;;;;;;4972070;28;20087;-83
2022/04/21 08:12:48;;;;;;;8.82;4.28;;;;;;;;;;4973912;28;20838;-83
2022/04/21 08:15:21;;;;;;;8.23;4.03;;;;;;;;;;4972833;28;20079;-83
2022/04/21 08:17:49;;;;;;;8.25;3.90;;;;;;;;;;4977210;28;20040;-83
2022/04/21 08:20:15;;;;;;;66.32;9.65;;;;;;;;;;4957647;28;20063;-83
2022/04/21 08:22:42;;;;;;;7.57;3.65;;;;;;;;;;4961701;28;20095;-83
2022/04/21 08:34:05;;;;;;;7.65;3.55;;;;;;;;;;4974513;28;20083;-81
2022/04/21 08:36:32;;;;;;;6.72;3.58;;;;;;;;;;4950592;28;20059;-84
2022/04/21 08:38:58;;;;;;;6.32;2.90;;;;;;;;;;4956321;28;20565;-84
2022/04/21 08:41:26;;;;;;;6.28;3.00;;;;;;;;;;4972303;28;20090;-84
2022/04/21 08:43:54;;;;;;;109.97;16.20;;;;;;;;;;4956358;28;20059;-84
2022/04/21 08:46:25;;;;;;;9.07;3.35;;;;;;;;;;4951625;28;20055;-84
2022/04/21 08:48:53;;;;;;;10.82;4.03;;;;;;;;;;4956454;28;20943;-83
2022/04/21 08:51:19;;;;;;;10.68;3.17;;;;;;;;;;4957274;28;20094;-84
2022/04/21 08:53:46;;;;;;;6.55;3.00;;;;;;;;;;4952223;28;20059;-84
2022/04/21 08:56:12;;;;;;;7.97;2.90;;;;;;;;;;4950618;28;20082;-83
2022/04/21 08:58:39;;;;;;;6.45;2.97;;;;;;;;;;4955514;28;20059;-85
2022/04/21 09:01:05;;;;;;;11.68;3.47;;;;;;;;;;4955469;28;20047;-83
2022/04/21 09:03:33;;;;;;;12.63;3.22;;;;;;;;;;4956864;28;20106;-85
2022/04/21 09:06:00;;;;;;;18.55;3.30;;;;;;;;;;4975237;28;20090;-84
2022/04/21 09:08:26;;;;;;;5.53;2.60;;;;;;;;;;4949463;28;20063;-83
2022/04/21 09:10:57;;;;;;;;;;;;;;;;;;4968730;28;20062;-85
2022/04/21 09:13:29;;;;;;;6.18;2.50;;;;;;;;;;4972359;28;47294;-84
2022/04/21 09:16:00;;;;;;;10.05;2.90;;;;;;;;;;4960375;28;20067;-82
2022/04/21 09:18:26;;;;;;;;;;;;;;;;;;4963272;28;20087;-83
2022/04/21 09:20:53;;;;;;;6.90;2.45;;;;;;;;;;4959524;28;43316;-83
2022/04/21 09:23:19;;;;;;;5.18;2.45;;;;;;;;;;4957693;28;20051;-82
2022/04/21 09:25:50;;;;;;;13.50;2.78;;;;;;;;;;4955882;28;20102;-84
2022/04/21 09:28:21;;;;;;;6.03;2.65;;;;;;;;;;4953414;28;20059;-84
2022/04/21 09:30:49;;;;;;;5.88;2.58;;;;;;;;;;4970618;28;20142;-85
2022/04/21 09:33:25;;;;;;;5.30;2.67;;;;;;;;;;4969359;28;20043;-84
2022/04/21 09:35:52;;;;;;;10.23;2.97;;;;;;;;;;4969366;28;20051;-83
2022/04/21 09:38:18;;;;;;;6.40;2.50;;;;;;;;;;4953542;28;20043;-83
2022/04/21 09:40:45;;;;;;;6.45;2.80;;;;;;;;;;4957191;28;20110;-83
2022/04/21 09:43:12;;;;;;;7.47;3.10;;;;;;;;;;4970644;28;20067;-83
2022/04/21 09:48:30;;;;;;;8.15;2.40;;;;;;;;;;4968962;28;20059;-84
2022/04/21 09:51:16;;;;;;;5.37;2.67;;;;;;;;;;4952427;28;20583;-83
2022/04/21 09:53:53;;;;;;;6.82;2.40;;;;;;;;;;4951777;28;20063;-84
2022/04/21 09:56:30;;;;;;;4.28;2.22;;;;;;;;;;4948953;28;20055;-84
2022/04/21 09:58:57;;;;;;;6.50;2.20;;;;;;;;;;4951207;28;20069;-85
2022/04/21 10:01:24;;;;;;;8.02;2.25;;;;;;;;;;4949109;28;20141;-84
2022/04/21 10:03:51;;;;;;;7.55;2.15;;;;;;;;;;4951798;28;20591;-84
2022/04/21 10:06:18;;;;;;;5.82;2.20;;;;;;;;;;4945950;28;20691;-84
2022/04/21 10:08:44;;;;;;;7.45;2.33;;;;;;;;;;4970202;28;20059;-85
2022/04/21 10:11:11;;;;;;;5.03;2.40;;;;;;;;;;4953908;28;20055;-85
2022/04/21 10:13:39;;;;;;;14.13;2.90;;;;;;;;;;4966145;28;20102;-85
2022/04/21 10:16:07;;;;;;;5.80;2.47;;;;;;;;;;4952848;28;20071;-85
2022/04/21 10:18:34;;;;;;;9.30;2.65;;;;;;;;;;4967669;28;20492;-85
2022/04/21 10:21:01;;;;;;;25.17;3.10;;;;;;;;;;4968653;28;20548;-85
2022/04/21 10:23:28;;;;;;;9.98;2.00;;;;;;;;;;4950015;28;20055;-84
2022/04/21 10:25:59;;;;;;;6.93;1.83;;;;;;;;;;4967430;28;20063;-85
2022/04/21 10:28:46;;;;;;;6.55;2.10;;;;;;;;;;4958687;28;20047;-84
2022/04/21 10:31:25;;;;;;;5.40;1.80;;;;;;;;;;4968560;28;20086;-84
2022/04/21 10:33:52;;;;;;;9.10;2.30;;;;;;;;;;4968691;28;20047;-83
2022/04/21 10:36:33;;;;;;;4.65;2.00;;;;;;;;;;4968804;28;20629;-83
2022/04/21 10:39:09;;;;;;;10.20;2.22;;;;;;;;;;4972127;28;20142;-83
2022/04/21 10:41:35;;;;;;;8.82;1.80;;;;;;;;;;4954326;28;20051;-83
2022/04/21 10:44:02;;;;;;;6.20;1.90;;;;;;;;;;4954230;28;20335;-83
2022/04/21 10:46:30;;;;;;;5.00;2.22;;;;;;;;;;4972065;28;20114;-83
2022/04/21 10:48:58;;;;;;;6.28;2.33;;;;;;;;;;4957163;28;20090;-83
2022/04/21 10:57:12;;;;;;;6.72;2.60;;;;;;;;;;4971481;28;20051;-83
2022/04/21 10:57:36;;;;;;;8.02;2.65;;;;;;;;;;4969848;28;20071;-83
2022/04/21 11:00:05;;;;;;;5.18;2.67;;;;;;;;;;4953524;28;20059;-82
2022/04/21 11:02:38;;;;;;;7.20;2.67;;;;;;;;;;4951376;28;20110;-82
2022/04/21 11:05:26;;;;;;;5.80;2.80;;;;;;;;;;4963515;28;20063;-82
2022/04/21 11:07:53;;;;;;;5.82;2.53;;;;;;;;;;4964795;28;20722;-85
2022/04/21 11:10:38;;;;;;;6.15;2.55;;;;;;;;;;4952018;28;20592;-85
2022/04/21 11:13:04;;;;;;;5.25;2.30;;;;;;;;;;4950458;28;20467;-84
2022/04/21 11:15:50;;;;;;;8.45;2.95;;;;;;;;;;4950944;28;20138;-84
2022/04/21 11:18:21;;;;;;;7.43;2.63;;;;;;;;;;4947056;28;20058;-83
2022/04/21 11:20:48;;;;;;;5.35;2.60;;;;;;;;;;4966077;28;20066;-84
2022/04/21 11:23:21;;;;;;;5.35;2.60;;;;;;;;;;4966043;28;20130;-85
2022/04/21 11:25:48;;;;;;;13.13;3.00;;;;;;;;;;4943168;28;20507;-85
2022/04/21 11:28:22;;;;;;;4.75;2.83;;;;;;;;;;4945301;28;20110;-85
2022/04/21 11:30:54;;;;;;;11.50;3.22;;;;;;;;;;4967782;28;20138;-82
2022/04/21 11:33:21;;;;;;;6.18;2.60;;;;;;;;;;4970638;28;20118;-82
2022/04/21 11:35:48;;;;;;;4.85;2.40;;;;;;;;;;4963295;28;20067;-82
2022/04/21 11:38:14;;;;;;;7.32;2.60;;;;;;;;;;4969123;28;20043;-82
2022/04/21 11:40:41;;;;;;;6.85;3.35;;;;;;;;;;4969514;28;20129;-82
2022/04/21 11:43:17;;;;;;;8.02;2.53;;;;;;;;;;4945473;28;20106;-82
2022/04/21 11:46:00;;;;;;;8.65;3.13;;;;;;;;;;4953495;28;20138;-82
2022/04/21 11:48:30;;;;;;;11.13;3.35;;;;;;;;;;4951584;28;20059;-82
2022/04/21 11:50:56;;;;;;;;;;;;;;;;;;4953275;28;20576;-82
2022/04/21 11:53:23;;;;;;;9.98;2.80;;;;;;;;;;4951251;28;43775;-82
2022/04/21 11:55:50;;;;;;;5.72;2.60;;;;;;;;;;4966305;28;20169;-83
2022/04/21 11:58:34;;;;;;;9.70;2.85;;;;;;;;;;4951547;28;20059;-81
2022/04/21 12:06:39;;;;;;;5.00;2.70;;;;;;;;;;4962286;28;20082;-82
2022/04/21 12:09:06;;;;;;;8.30;2.85;;;;;;;;;;4950517;28;20115;-82
2022/04/21 12:11:33;;;;;;;6.70;2.47;;;;;;;;;;4952048;28;20555;-81
2022/04/21 12:14:00;;;;;;;8.35;3.13;;;;;;;;;;4963683;28;20106;-82
2022/04/21 12:16:34;;;;;;;7.32;3.03;;;;;;;;;;4946939;28;20060;-81
2022/04/21 12:19:09;;;;;;;9.75;2.58;;;;;;;;;;4951636;28;20043;-81
2022/04/21 12:21:36;;;;;;;4.97;2.50;;;;;;;;;;4965698;28;20146;-83
2022/04/21 12:24:12;;;;;;;11.30;2.70;;;;;;;;;;4951363;28;20447;-83
2022/04/21 12:26:38;;;;;;;5.88;2.30;;;;;;;;;;4967213;28;20079;-83
2022/04/21 12:29:07;;;;;;;6.75;2.40;;;;;;;;;;4967835;28;20051;-82
2022/04/21 12:31:46;;;;;;;7.72;2.40;;;;;;;;;;4965642;28;20094;-82
2022/04/21 12:34:19;;;;;;;8.38;2.92;;;;;;;;;;4944987;28;20743;-82
2022/04/21 12:36:50;;;;;;;6.88;2.58;;;;;;;;;;4947476;28;20060;-83
2022/04/21 12:39:19;;;;;;;10.50;2.60;;;;;;;;;;4956250;28;20051;-82
2022/04/21 12:42:06;;;;;;;7.57;2.70;;;;;;;;;;4943479;28;20059;-82
2022/04/21 12:44:32;;;;;;;9.02;2.83;;;;;;;;;;4946979;28;20051;-83
2022/04/21 12:47:00;;;;;;;10.82;3.05;;;;;;;;;;4949382;28;20043;-83
2022/04/21 12:49:45;;;;;;;9.50;2.53;;;;;;;;;;4953095;28;20132;-83
2022/04/21 12:52:35;;;;;;;11.18;2.80;;;;;;;;;;4947429;28;20088;-82
2022/04/21 12:55:05;;;;;;;6.93;2.50;;;;;;;;;;4961479;28;20060;-81
2022/04/21 12:57:31;;;;;;;6.82;2.60;;;;;;;;;;4951654;28;20059;-81
2022/04/21 12:59:58;;;;;;;5.35;2.55;;;;;;;;;;4967023;28;20162;-82
2022/04/21 13:02:26;;;;;;;5.68;2.40;;;;;;;;;;4971006;28;20499;-82
2022/04/21 13:04:52;;;;;;;5.20;2.70;;;;;;;;;;4967126;28;20051;-81
2022/04/21 13:07:24;;;;;;;5.25;2.45;;;;;;;;;;4952903;28;20071;-82
2022/04/21 13:09:50;;;;;;;9.70;2.78;;;;;;;;;;4950549;28;20154;-82
2022/04/21 13:12:17;;;;;;;10.45;2.70;;;;;;;;;;4951080;28;20055;-82
2022/04/21 13:14:43;;;;;;;6.78;2.47;;;;;;;;;;4969390;28;20511;-82
2022/04/21 13:17:10;;;;;;;6.70;2.50;;;;;;;;;;4959815;28;20118;-81
2022/04/21 13:19:36;;;;;;;6.72;2.63;;;;;;;;;;4953615;28;20125;-82
2022/04/21 13:22:03;;;;;;;6.60;2.85;;;;;;;;;;4973296;28;20614;-81
2022/04/21 13:24:30;;;;;;;9.20;2.90;;;;;;;;;;4972508;28;20056;-81
2022/04/21 13:26:58;;;;;;;6.50;3.08;;;;;;;;;;4954049;28;20142;-82
2022/04/21 13:29:27;;;;;;;7.10;2.80;;;;;;;;;;4971187;28;20107;-82
2022/04/21 13:34:38;;;;;;;15.02;3.30;;;;;;;;;;4967953;28;20092;-82
2022/04/21 13:37:05;;;;;;;13.30;3.63;;;;;;;;;;4954288;28;20086;-83
2022/04/21 13:39:34;;;;;;;6.35;2.80;;;;;;;;;;4967776;28;20137;-82
2022/04/21 13:42:01;;;;;;;6.37;3.00;;;;;;;;;;4970690;28;20134;-82
2022/04/21 13:44:28;;;;;;;7.22;2.95;;;;;;;;;;4951135;28;20373;-82
2022/04/21 13:47:14;;;;;;;9.45;3.03;;;;;;;;;;4954503;28;20155;-82
2022/04/21 13:49:41;;;;;;;13.38;3.40;;;;;;;;;;4953430;28;20158;-82
2022/04/21 13:52:11;;;;;;;6.80;2.78;;;;;;;;;;4964782;28;20744;-82
2022/04/21 13:54:41;;;;;;;6.60;3.40;;;;;;;;;;4951371;28;20062;-82
2022/04/21 13:57:07;;;;;;;8.50;3.00;;;;;;;;;;4945064;28;20080;-82
2022/04/21 14:06:31;;;;;;;8.75;3.10;;;;;;;;;;4952873;28;20035;-80
2022/04/21 14:08:59;;;;;;;5.63;3.13;;;;;;;;;;4964717;28;20051;-81
2022/04/21 14:11:25;;;;;;;8.48;3.15;;;;;;;;;;4963453;28;21029;-82
2022/04/21 14:13:52;;;;;;;5.45;2.85;;;;;;;;;;4953117;28;20066;-81
2022/04/21 14:16:18;;;;;;;7.25;3.38;;;;;;;;;;4951852;28;20119;-80
2022/04/21 14:19:04;;;;;;;11.23;3.50;;;;;;;;;;4974531;28;20094;-80
2022/04/21 14:21:31;;;;;;;9.25;3.60;;;;;;;;;;4949833;28;20067;-82
2022/04/21 14:23:58;;;;;;;12.05;3.53;;;;;;;;;;4952348;28;20103;-80
2022/04/21 14:26:24;;;;;;;6.60;3.88;;;;;;;;;;4951146;28;20285;-81
2022/04/21 14:28:51;;;;;;;6.93;3.38;;;;;;;;;;4951406;28;20058;-81
2022/04/21 14:31:17;;;;;;;6.22;3.25;;;;;;;;;;4969531;28;20145;-82
2022/04/21 14:33:44;;;;;;;9.40;3.60;;;;;;;;;;4948175;28;20099;-81
2022/04/21 14:36:11;;;;;;;6.63;2.75;;;;;;;;;;4967366;28;20056;-81
2022/04/21 14:44:10;;;;;;;5.15;3.17;;;;;;;;;;4968441;28;20149;-81
2022/04/21 14:46:37;;;;;;;8.07;3.30;;;;;;;;;;4967376;28;20063;-81
2022/04/21 14:49:23;;;;;;;7.22;3.00;;;;;;;;;;4949189;28;20053;-81
2022/04/21 14:51:50;;;;;;;7.32;3.08;;;;;;;;;;4955300;28;20412;-81
2022/04/21 14:54:16;;;;;;;5.43;3.22;;;;;;;;;;4968737;28;20059;-81
2022/04/21 14:56:43;;;;;;;7.40;3.05;;;;;;;;;;4970708;28;20059;-81
2022/04/21 14:59:10;;;;;;;7.93;3.30;;;;;;;;;;4968203;28;20058;-81
2022/04/21 15:01:38;;;;;;;11.57;3.22;;;;;;;;;;4952387;28;20039;-80
2022/04/21 15:04:05;;;;;;;9.60;3.00;;;;;;;;;;4951810;28;20110;-81
2022/04/21 15:06:32;;;;;;;6.43;2.95;;;;;;;;;;4952345;28;20079;-81
2022/04/21 15:08:59;;;;;;;14.18;3.42;;;;;;;;;;4967532;28;20059;-81
2022/04/21 15:11:25;;;;;;;6.43;2.70;;;;;;;;;;4961926;28;20055;-81
2022/04/21 15:13:52;;;;;;;8.75;2.63;;;;;;;;;;4968471;28;20067;-81
2022/04/21 15:16:19;;;;;;;5.53;2.63;;;;;;;;;;4950789;28;20086;-81
2022/04/21 15:18:45;;;;;;;6.68;2.80;;;;;;;;;;4966255;28;20094;-81
2022/04/21 15:21:12;;;;;;;6.82;2.60;;;;;;;;;;4951848;28;20055;-81
2022/04/21 15:23:38;;;;;;;6.57;2.67;;;;;;;;;;4950106;28;20093;-81
2022/04/21 15:26:05;;;;;;;8.25;2.97;;;;;;;;;;4968415;28;20110;-81
2022/04/21 15:28:32;;;;;;;7.53;3.30;;;;;;;;;;4969404;28;20051;-81
2022/04/21 15:30:59;;;;;;;4.80;2.25;;;;;;;;;;4952561;28;20872;-81
2022/04/21 15:33:25;;;;;;;6.75;2.83;;;;;;;;;;4946832;28;20126;-81
2022/04/21 15:35:53;;;;;;;9.88;2.70;;;;;;;;;;4952678;28;20050;-80
2022/04/21 15:38:20;;;;;;;12.63;2.90;;;;;;;;;;4950657;28;20146;-81
2022/04/21 15:40:46;;;;;;;9.65;3.05;;;;;;;;;;4964923;28;20051;-81
2022/04/21 15:43:13;;;;;;;5.88;2.60;;;;;;;;;;4972674;28;20141;-81